Terminal Aerodrome Forecast
Issued by NWS Shreveport, LA

Home | Current Version | Previous Version | Text Only | Print | Product List | Glossary On
Versions: 1 2 3 4 5 6 7 8 9 10 11 12 13 14 15 16 17 18 19 20 21 22 23 24 25 26 27 28 29 30 31 32 33 34 35 36 37 38
000
FTUS44 KSHV 200542
TAFTYR
TAF
KTYR 200542Z 2006/2106 20010KT P6SM VCTS BKN040CB
      TEMPO 2006/2009 VRB25G50KT 1SM +TSRA BR OVC020CB
     FM201000 21008KT P6SM SCT080 BKN150
     FM201200 22010KT P6SM BKN015
     FM201500 23012G20KT P6SM SCT035
     FM210000 20007KT P6SM FEW250=

USA.gov is the U.S. government's official web portal to all federal, state and local government web resources and services.